Time;durP1;ratioP1;P1;durP2;ratioP2;P2;SDS_P1;SDS_P2;PMS_P1;PMS_P2;Temp;Humidity;BMP_temperature;BMP_pressure;BME280_temperature;BME280_humidity;BME280_pressure;Samples;Min_cycle;Max_cycle;Signal;HPM_P1;HPM_P2
2022/04/14 00:01:08;;;;;;;7.80;4.70;;;11.50;99.90;;;;;;5030563;28;20209;-72
2022/04/14 00:03:35;;;;;;;5.30;4.38;;;11.50;99.90;;;;;;5030648;28;20471;-71
2022/04/14 00:06:03;;;;;;;5.47;4.95;;;11.50;99.90;;;;;;5030166;28;20226;-70
2022/04/14 00:08:29;;;;;;;5.13;4.03;;;11.50;99.90;;;;;;5029554;28;20208;-70
2022/04/14 00:10:56;;;;;;;6.30;4.60;;;11.50;99.90;;;;;;5029961;28;20209;-70
2022/04/14 00:13:23;;;;;;;6.60;4.68;;;11.40;99.90;;;;;;5031564;28;20232;-71
2022/04/14 00:15:49;;;;;;;5.40;4.90;;;11.30;99.90;;;;;;5033962;28;20574;-71
2022/04/14 00:18:16;;;;;;;5.55;4.55;;;11.30;99.90;;;;;;5034128;28;20613;-71
2022/04/14 00:20:43;;;;;;;6.05;4.75;;;11.30;99.90;;;;;;5033793;28;20209;-70
2022/04/14 00:23:11;;;;;;;6.30;4.68;;;11.20;99.90;;;;;;5034390;28;20681;-71
2022/04/14 00:25:38;;;;;;;4.80;4.38;;;11.20;99.90;;;;;;5033994;28;20228;-71
2022/04/14 00:28:05;;;;;;;5.20;4.55;;;11.10;99.90;;;;;;5033610;28;20575;-70
2022/04/14 00:30:32;;;;;;;12.27;5.07;;;11.10;99.90;;;;;;5034115;28;20574;-71
2022/04/14 00:32:58;;;;;;;5.80;4.75;;;11.00;99.90;;;;;;5033742;28;20233;-70
2022/04/14 00:35:25;;;;;;;6.13;4.75;;;11.00;99.90;;;;;;5033987;28;20205;-71
2022/04/14 00:37:52;;;;;;;5.60;4.15;;;11.10;99.90;;;;;;5033480;28;20279;-73
2022/04/14 00:40:20;;;;;;;7.25;4.50;;;11.00;99.90;;;;;;5033343;28;20669;-70
2022/04/14 00:42:46;;;;;;;6.03;5.18;;;11.00;99.90;;;;;;5033493;28;20213;-71
2022/04/14 00:45:14;;;;;;;5.25;4.10;;;10.90;99.90;;;;;;5033816;28;20201;-70
2022/04/14 00:47:41;;;;;;;5.60;4.50;;;10.90;99.90;;;;;;5033501;28;20816;-70
2022/04/14 00:50:09;;;;;;;6.50;4.80;;;10.80;99.90;;;;;;5033649;28;20256;-71
2022/04/14 00:52:35;;;;;;;5.47;4.97;;;10.80;99.90;;;;;;5033766;28;20225;-70
2022/04/14 00:55:02;;;;;;;6.22;4.40;;;10.80;99.90;;;;;;5033575;28;20256;-72
2022/04/14 00:57:30;;;;;;;4.82;4.35;;;10.80;99.90;;;;;;5034033;28;20231;-71
2022/04/14 00:59:57;;;;;;;8.07;4.15;;;10.80;99.90;;;;;;5032801;28;20216;-72
2022/04/14 01:02:23;;;;;;;6.18;4.88;;;10.80;99.90;;;;;;5033725;28;20198;-72
2022/04/14 01:04:50;;;;;;;5.60;4.35;;;10.80;99.90;;;;;;5033119;28;20209;-72
2022/04/14 01:07:18;;;;;;;5.20;3.90;;;10.70;99.90;;;;;;5033477;28;20230;-72
2022/04/14 01:09:47;;;;;;;5.05;4.15;;;10.70;99.90;;;;;;5032415;28;20202;-71
2022/04/14 01:12:14;;;;;;;6.45;4.20;;;10.70;99.90;;;;;;5033404;28;20654;-72
2022/04/14 01:14:42;;;;;;;7.38;5.18;;;10.70;99.90;;;;;;5033021;28;20209;-72
2022/04/14 01:17:09;;;;;;;7.43;4.30;;;10.60;99.90;;;;;;5033198;28;20218;-72
2022/04/14 01:19:38;;;;;;;4.80;4.10;;;10.60;99.90;;;;;;5032689;28;20685;-71
2022/04/14 01:22:08;;;;;;;6.57;4.20;;;10.60;99.90;;;;;;5032983;28;20217;-72
2022/04/14 01:24:36;;;;;;;5.18;4.15;;;10.60;99.90;;;;;;5032418;28;20202;-72
2022/04/14 01:27:03;;;;;;;5.50;3.75;;;10.50;99.90;;;;;;5032800;28;20217;-72
2022/04/14 01:29:30;;;;;;;5.07;3.75;;;10.50;99.90;;;;;;5032331;28;20312;-72
2022/04/14 01:31:58;;;;;;;4.80;4.15;;;10.50;99.90;;;;;;5033049;28;20230;-72
2022/04/14 01:34:25;;;;;;;5.25;4.00;;;10.40;99.90;;;;;;5032828;28;20205;-72
2022/04/14 01:36:52;;;;;;;5.13;4.20;;;10.30;99.90;;;;;;5033080;28;20229;-72
2022/04/14 01:39:19;;;;;;;5.85;4.88;;;10.30;99.90;;;;;;5032181;28;20202;-72
2022/04/14 01:41:47;;;;;;;5.20;4.20;;;10.30;99.90;;;;;;5032973;28;20204;-71
2022/04/14 01:44:13;;;;;;;7.57;4.90;;;10.30;99.90;;;;;;5032820;28;20695;-72
2022/04/14 01:46:41;;;;;;;5.93;4.72;;;10.20;99.90;;;;;;5033120;28;20221;-71
2022/04/14 01:49:08;;;;;;;6.55;3.70;;;10.20;99.90;;;;;;5032745;28;20202;-72
2022/04/14 01:51:35;;;;;;;4.65;4.00;;;10.20;99.90;;;;;;5033330;28;20213;-72
2022/04/14 01:54:02;;;;;;;7.05;4.60;;;10.30;99.90;;;;;;5033356;28;20209;-72
2022/04/14 01:56:28;;;;;;;4.50;3.95;;;10.30;99.90;;;;;;5032883;28;20225;-72
2022/04/14 01:58:57;;;;;;;6.97;4.60;;;10.20;99.90;;;;;;5031718;28;20212;-72
2022/04/14 02:01:24;;;;;;;4.40;3.75;;;10.20;99.90;;;;;;5032144;28;20644;-72
2022/04/14 02:03:51;;;;;;;7.38;4.28;;;10.20;99.90;;;;;;5031988;28;20202;-72
2022/04/14 02:06:18;;;;;;;6.55;4.18;;;10.20;99.90;;;;;;5032007;28;20225;-71
2022/04/14 02:08:45;;;;;;;5.82;3.63;;;10.20;99.90;;;;;;5031604;28;20205;-71
2022/04/14 02:11:12;;;;;;;4.93;3.60;;;10.20;99.90;;;;;;5032208;28;20202;-72
2022/04/14 02:13:39;;;;;;;4.57;3.58;;;10.20;99.90;;;;;;5031748;28;20217;-72
2022/04/14 02:16:07;;;;;;;5.20;3.70;;;10.20;99.90;;;;;;5031865;28;20705;-71
2022/04/14 02:18:34;;;;;;;5.20;4.30;;;10.20;99.90;;;;;;5031501;28;20256;-71
2022/04/14 02:21:01;;;;;;;10.27;3.75;;;10.20;99.90;;;;;;5031576;28;20276;-71
2022/04/14 02:23:28;;;;;;;5.85;3.92;;;10.20;99.90;;;;;;5032118;28;20204;-72
2022/04/14 02:25:55;;;;;;;4.95;3.65;;;10.20;99.90;;;;;;5031445;28;20205;-71
2022/04/14 02:28:21;;;;;;;5.53;3.60;;;10.30;99.90;;;;;;5031519;28;20208;-72
2022/04/14 02:30:49;;;;;;;4.95;4.45;;;10.30;99.90;;;;;;5031702;28;20201;-71
2022/04/14 02:33:17;;;;;;;4.68;3.95;;;10.30;99.90;;;;;;5031692;28;20633;-72
2022/04/14 02:35:44;;;;;;;4.75;3.83;;;10.30;99.90;;;;;;5031295;28;20206;-71
2022/04/14 02:38:11;;;;;;;6.40;3.70;;;10.30;99.90;;;;;;5031053;28;20213;-71
2022/04/14 02:40:38;;;;;;;6.55;4.35;;;10.30;99.90;;;;;;5031716;28;20665;-71
2022/04/14 02:43:05;;;;;;;7.45;3.45;;;10.30;99.90;;;;;;5031065;28;20209;-71
2022/04/14 02:45:32;;;;;;;7.72;3.85;;;10.20;99.90;;;;;;5031477;28;20209;-72
2022/04/14 02:47:58;;;;;;;6.90;3.92;;;10.20;99.90;;;;;;5030812;28;20633;-71
2022/04/14 02:50:26;;;;;;;5.43;4.15;;;10.20;99.90;;;;;;5031380;28;20201;-71
2022/04/14 02:52:54;;;;;;;3.95;3.22;;;10.20;99.90;;;;;;5031156;28;20218;-71
2022/04/14 02:55:21;;;;;;;4.43;3.72;;;10.10;99.90;;;;;;5031474;28;20233;-72
2022/04/14 02:57:48;;;;;;;6.88;3.50;;;10.10;99.90;;;;;;5031380;28;20245;-71
2022/04/14 03:00:16;;;;;;;5.88;3.53;;;10.10;99.90;;;;;;5030875;28;20237;-72
2022/04/14 03:02:43;;;;;;;6.85;4.25;;;10.00;99.90;;;;;;5031300;28;20202;-72
2022/04/14 03:05:10;;;;;;;5.32;3.65;;;10.00;99.90;;;;;;5031056;28;20206;-71
2022/04/14 03:07:39;;;;;;;9.75;4.22;;;10.00;99.90;;;;;;5031582;28;21019;-72
2022/04/14 03:10:07;;;;;;;5.47;3.60;;;10.00;99.90;;;;;;5030534;28;20300;-72
2022/04/14 03:12:42;;;;;;;5.32;4.07;;;10.00;99.90;;;;;;5031246;28;20608;-72
2022/04/14 03:15:09;;;;;;;7.93;3.83;;;9.90;99.90;;;;;;5030732;28;20665;-72
2022/04/14 03:17:35;;;;;;;5.40;3.97;;;9.90;99.90;;;;;;5031189;28;20226;-72
2022/04/14 03:20:03;;;;;;;5.72;4.22;;;9.90;99.90;;;;;;5030469;28;20209;-72
2022/04/14 03:22:33;;;;;;;5.07;4.35;;;9.90;99.90;;;;;;5030927;28;20284;-72
2022/04/14 03:25:02;;;;;;;9.45;6.25;;;9.90;99.90;;;;;;5030898;28;20193;-72
2022/04/14 03:27:28;;;;;;;9.10;5.80;;;10.00;99.90;;;;;;5030770;28;20224;-72
2022/04/14 03:29:55;;;;;;;10.48;6.65;;;10.10;99.90;;;;;;5030372;28;20202;-72
2022/04/14 03:32:22;;;;;;;9.93;7.65;;;10.20;99.90;;;;;;5030582;28;20273;-72
2022/04/14 03:34:49;;;;;;;8.23;6.40;;;10.40;99.90;;;;;;5015813;28;20198;-72
2022/04/14 03:37:16;;;;;;;11.25;6.93;;;10.50;99.90;;;;;;5018330;28;20485;-72
2022/04/14 03:39:42;;;;;;;12.48;7.30;;;10.60;99.90;;;;;;5018129;28;20298;-72
2022/04/14 03:42:10;;;;;;;9.60;7.93;;;10.60;99.90;;;;;;5019597;28;20193;-71
2022/04/14 03:44:37;;;;;;;15.10;8.65;;;10.70;99.90;;;;;;5020277;28;20940;-73
2022/04/14 03:47:04;;;;;;;13.02;9.10;;;10.80;99.90;;;;;;5024277;28;20271;-73
2022/04/14 03:49:31;;;;;;;13.80;9.07;;;10.90;99.90;;;;;;5021663;28;20253;-73
2022/04/14 03:51:57;;;;;;;11.07;9.27;;;10.90;99.90;;;;;;5017922;28;20209;-72
2022/04/14 03:54:24;;;;;;;16.03;10.37;;;11.00;99.90;;;;;;5014208;28;20693;-72
2022/04/14 03:56:51;;;;;;;17.10;11.20;;;11.10;99.90;;;;;;5028058;28;20480;-71
2022/04/14 03:59:19;;;;;;;15.95;10.18;;;11.10;99.90;;;;;;5023159;28;20865;-71
2022/04/14 04:01:46;;;;;;;13.10;10.10;;;11.20;99.90;;;;;;5022360;28;20214;-71
2022/04/14 04:04:13;;;;;;;11.80;8.65;;;11.20;99.90;;;;;;5023476;28;20468;-71
2022/04/14 04:06:39;;;;;;;14.15;9.25;;;11.20;99.90;;;;;;5023827;28;20214;-71
2022/04/14 04:09:06;;;;;;;11.73;8.80;;;11.20;99.90;;;;;;5021907;28;20203;-71
2022/04/14 04:11:33;;;;;;;14.67;10.53;;;11.20;99.90;;;;;;5024845;28;20205;-72
2022/04/14 04:13:59;;;;;;;15.45;12.90;;;11.10;99.90;;;;;;5021563;28;20453;-72
2022/04/14 04:16:27;;;;;;;15.75;11.70;;;11.20;99.90;;;;;;5023304;28;20592;-71
2022/04/14 04:18:54;;;;;;;16.20;12.30;;;11.20;99.90;;;;;;5022277;28;20203;-70
2022/04/14 04:21:24;;;;;;;12.20;10.20;;;11.10;99.90;;;;;;5022453;28;20467;-71
2022/04/14 04:23:51;;;;;;;12.10;10.13;;;11.10;99.90;;;;;;5022625;28;20203;-71
2022/04/14 04:26:18;;;;;;;15.32;10.32;;;11.00;99.90;;;;;;5024846;28;20237;-71
2022/04/14 04:28:44;;;;;;;10.73;9.17;;;11.00;99.90;;;;;;5020335;28;20632;-71
2022/04/14 04:31:11;;;;;;;15.77;10.47;;;10.90;99.90;;;;;;5014247;28;20471;-69
2022/04/14 04:33:39;;;;;;;15.27;9.23;;;10.90;99.90;;;;;;5014229;28;21008;-71
2022/04/14 04:36:07;;;;;;;12.88;9.90;;;10.80;99.90;;;;;;5014275;28;20485;-73
2022/04/14 04:38:33;;;;;;;13.10;9.63;;;10.80;99.90;;;;;;5013532;28;20233;-73
2022/04/14 04:41:00;;;;;;;13.13;10.57;;;10.70;99.90;;;;;;5014032;28;20465;-73
2022/04/14 04:43:27;;;;;;;13.73;9.68;;;10.70;99.90;;;;;;5013691;28;20215;-73
2022/04/14 04:45:53;;;;;;;15.60;9.67;;;10.60;99.90;;;;;;5013655;28;20583;-71
2022/04/14 04:48:20;;;;;;;13.33;10.40;;;10.50;99.90;;;;;;5013437;28;20469;-72
2022/04/14 04:50:49;;;;;;;14.00;9.40;;;10.50;99.90;;;;;;5013950;28;20903;-73
2022/04/14 04:53:15;;;;;;;15.77;9.10;;;10.50;99.90;;;;;;5014437;28;20535;-74
2022/04/14 04:55:42;;;;;;;15.48;9.40;;;10.50;99.90;;;;;;5013624;28;20205;-72
2022/04/14 04:58:09;;;;;;;13.77;9.10;;;10.50;99.90;;;;;;5013477;28;20206;-72
2022/04/14 05:00:35;;;;;;;11.85;9.15;;;10.40;99.90;;;;;;5013788;28;20202;-71
2022/04/14 05:03:02;;;;;;;11.00;8.70;;;10.40;99.90;;;;;;5013889;28;20261;-71
2022/04/14 05:05:29;;;;;;;12.27;8.68;;;10.30;99.90;;;;;;5013761;28;20210;-72
2022/04/14 05:07:57;;;;;;;9.60;8.57;;;10.30;99.90;;;;;;5012946;28;20233;-71
2022/04/14 05:10:24;;;;;;;12.15;8.63;;;10.30;99.90;;;;;;5013922;28;20241;-71
2022/04/14 05:12:50;;;;;;;11.02;8.77;;;10.30;99.90;;;;;;5013896;28;20210;-72
2022/04/14 05:15:17;;;;;;;9.70;8.68;;;10.30;99.90;;;;;;5013867;28;20202;-72
2022/04/14 05:17:44;;;;;;;12.88;8.48;;;10.30;99.90;;;;;;5013816;28;20237;-71
2022/04/14 05:20:11;;;;;;;14.63;9.05;;;10.30;99.90;;;;;;5012940;28;20203;-70
2022/04/14 05:22:38;;;;;;;10.13;8.90;;;10.30;99.90;;;;;;5012278;28;20213;-70
2022/04/14 05:25:06;;;;;;;12.05;8.43;;;10.30;99.90;;;;;;5022491;28;20622;-71
2022/04/14 05:27:33;;;;;;;9.93;8.77;;;10.30;99.90;;;;;;5031866;28;20697;-70
2022/04/14 05:30:00;;;;;;;16.17;8.25;;;10.40;99.90;;;;;;5032453;28;20526;-71
2022/04/14 05:32:27;;;;;;;12.10;8.73;;;10.40;99.90;;;;;;5033100;28;20592;-71
2022/04/14 05:34:54;;;;;;;12.55;9.40;;;10.40;99.90;;;;;;5032387;28;20218;-71
2022/04/14 05:37:20;;;;;;;15.18;9.80;;;10.40;99.90;;;;;;5033120;28;20225;-74
2022/04/14 05:39:47;;;;;;;12.00;8.50;;;10.50;99.90;;;;;;5048806;22;20205;-70
2022/04/14 05:42:15;;;;;;;13.15;9.25;;;10.50;99.90;;;;;;5051369;28;20629;-71
2022/04/14 05:44:42;;;;;;;10.38;8.93;;;10.60;99.90;;;;;;5052237;28;20201;-71
2022/04/14 05:47:08;;;;;;;13.95;9.85;;;10.70;99.90;;;;;;5039633;28;20268;-72
2022/04/14 05:49:35;;;;;;;10.20;8.73;;;10.70;99.90;;;;;;5032301;28;20623;-69
2022/04/14 05:52:02;;;;;;;11.43;9.52;;;10.80;99.90;;;;;;5032439;28;20205;-71
2022/04/14 05:54:29;;;;;;;15.18;10.60;;;10.90;99.90;;;;;;5032506;28;20228;-69
2022/04/14 05:56:55;;;;;;;15.63;12.57;;;11.00;99.90;;;;;;5031843;28;20232;-69
2022/04/14 05:59:23;;;;;;;17.83;12.60;;;11.00;99.90;;;;;;5032163;28;20240;-72
2022/04/14 06:01:50;;;;;;;16.55;11.05;;;11.10;99.90;;;;;;5032279;28;20208;-72
2022/04/14 06:04:17;;;;;;;15.27;13.37;;;11.20;99.90;;;;;;5032476;28;20248;-72
2022/04/14 06:06:44;;;;;;;23.42;19.40;;;11.30;99.90;;;;;;5029422;28;20465;-71
2022/04/14 06:09:12;;;;;;;26.83;21.40;;;11.40;99.90;;;;;;5027715;28;20204;-72
2022/04/14 06:11:39;;;;;;;27.07;22.20;;;11.70;99.90;;;;;;5030960;28;20544;-71
2022/04/14 06:14:06;;;;;;;26.80;22.10;;;11.80;99.90;;;;;;5031171;28;20494;-70
2022/04/14 06:16:34;;;;;;;26.73;22.10;;;12.00;99.90;;;;;;5030796;28;20476;-72
2022/04/14 06:19:01;;;;;;;28.20;22.47;;;12.30;99.90;;;;;;5029801;28;20464;-69
2022/04/14 06:21:28;;;;;;;26.40;20.50;;;12.40;99.90;;;;;;5031365;28;20502;-69
2022/04/14 06:23:56;;;;;;;27.87;20.90;;;12.60;99.90;;;;;;5030368;28;20463;-69
2022/04/14 06:26:23;;;;;;;25.27;20.70;;;12.70;99.90;;;;;;5030857;28;20492;-71
2022/04/14 06:28:49;;;;;;;26.10;20.57;;;12.80;99.90;;;;;;5030568;28;20460;-71
2022/04/14 06:31:16;;;;;;;24.33;20.20;;;13.00;99.90;;;;;;5030123;28;20948;-72
2022/04/14 06:33:45;;;;;;;23.63;19.37;;;13.10;99.90;;;;;;5030865;28;21009;-72
2022/04/14 06:36:11;;;;;;;22.70;19.77;;;13.20;99.90;;;;;;5030527;28;20477;-70
2022/04/14 06:38:39;;;;;;;25.63;19.47;;;13.30;99.90;;;;;;5029997;28;20456;-71
2022/04/14 06:41:06;;;;;;;20.33;18.10;;;13.40;99.90;;;;;;5029948;28;20487;-72
2022/04/14 06:43:33;;;;;;;24.47;18.90;;;13.50;99.90;;;;;;5030413;28;20463;-72
2022/04/14 06:46:03;;;;;;;25.93;19.27;;;13.60;99.90;;;;;;5030440;28;20476;-72
2022/04/14 06:48:31;;;;;;;21.80;18.13;;;13.70;99.90;;;;;;5031493;28;20466;-71
2022/04/14 06:50:59;;;;;;;18.57;16.43;;;13.80;99.90;;;;;;5030300;28;21002;-70
2022/04/14 06:53:26;;;;;;;22.40;16.20;;;13.90;99.90;;;;;;5030181;28;20456;-69
2022/04/14 06:55:53;;;;;;;22.13;17.60;;;14.00;99.90;;;;;;5029613;28;20468;-70
2022/04/14 06:58:21;;;;;;;21.97;16.63;;;14.10;99.90;;;;;;5029410;28;20464;-69
2022/04/14 07:00:48;;;;;;;17.13;15.13;;;14.30;99.90;;;;;;5030521;28;20467;-69
2022/04/14 07:03:15;;;;;;;19.93;14.70;;;14.40;99.90;;;;;;5030525;28;20503;-69
2022/04/14 07:05:42;;;;;;;21.83;16.07;;;14.50;99.90;;;;;;5030100;28;20456;-69
2022/04/14 07:08:10;;;;;;;17.87;14.37;;;14.60;99.90;;;;;;5028146;28;20492;-68
2022/04/14 07:10:37;;;;;;;20.83;15.17;;;14.70;99.90;;;;;;5029866;28;20460;-69
2022/04/14 07:13:04;;;;;;;24.20;14.97;;;14.80;99.90;;;;;;5029890;28;20830;-71
2022/04/14 07:15:31;;;;;;;17.60;13.90;;;15.00;99.90;;;;;;5029706;28;20484;-71
2022/04/14 07:17:58;;;;;;;18.43;14.90;;;15.10;99.90;;;;;;5029121;28;20994;-71
2022/04/14 07:20:29;;;;;;;19.40;14.63;;;15.20;99.90;;;;;;5029358;28;20457;-70
2022/04/14 07:22:58;;;;;;;16.87;14.47;;;15.40;99.90;;;;;;5028195;28;20467;-70
2022/04/14 07:25:28;;;;;;;17.00;14.40;;;15.50;99.90;;;;;;5029751;28;20511;-70
2022/04/14 07:27:55;;;;;;;21.70;15.90;;;15.60;99.90;;;;;;5029037;28;20578;-73
2022/04/14 07:30:23;;;;;;;20.87;15.37;;;15.80;99.90;;;;;;5029079;28;20468;-71
2022/04/14 07:32:50;;;;;;;19.33;15.17;;;15.90;99.90;;;;;;5029498;28;20940;-71
2022/04/14 07:35:18;;;;;;;18.33;14.90;;;16.10;99.90;;;;;;5029240;28;20895;-73
2022/04/14 07:37:45;;;;;;;19.20;15.20;;;16.30;99.90;;;;;;5029069;28;21073;-72
2022/04/14 07:40:11;;;;;;;16.53;14.10;;;16.30;99.90;;;;;;5028699;28;21066;-70
2022/04/14 07:42:41;;;;;;;17.17;14.50;;;16.40;99.90;;;;;;5029780;28;20465;-69
2022/04/14 07:45:10;;;;;;;16.53;13.47;;;16.50;99.90;;;;;;5028226;28;20818;-75
2022/04/14 07:47:37;;;;;;;16.30;13.60;;;16.70;99.90;;;;;;5029453;28;20589;-72
2022/04/14 07:50:04;;;;;;;18.47;13.67;;;16.80;99.90;;;;;;5029057;28;20471;-70
2022/04/14 07:52:31;;;;;;;17.13;14.43;;;17.00;99.90;;;;;;5029276;28;20464;-73
2022/04/14 07:54:58;;;;;;;16.27;14.50;;;17.10;99.90;;;;;;5028885;28;20516;-69
2022/04/14 07:57:25;;;;;;;13.50;12.10;;;17.20;99.90;;;;;;5028928;28;20567;-72
2022/04/14 07:59:53;;;;;;;17.13;11.70;;;17.40;99.90;;;;;;5028705;28;20475;-72
2022/04/14 08:02:20;;;;;;;15.33;12.00;;;17.60;99.90;;;;;;5029409;28;20468;-73
2022/04/14 08:04:47;;;;;;;13.13;11.73;;;18.00;99.90;;;;;;5029559;28;20951;-72
2022/04/14 08:07:13;;;;;;;18.00;12.13;;;18.30;99.90;;;;;;5028854;28;20485;-71
2022/04/14 08:09:41;;;;;;;14.40;12.90;;;18.70;99.90;;;;;;5028367;28;20535;-71
2022/04/14 08:12:09;;;;;;;14.40;11.10;;;19.10;99.90;;;;;;5029503;28;20472;-74
2022/04/14 08:14:35;;;;;;;15.10;12.73;;;19.50;99.90;;;;;;5028925;28;20490;-72
2022/04/14 08:17:04;;;;;;;13.63;11.90;;;19.80;99.90;;;;;;5028996;28;20484;-71
2022/04/14 08:19:31;;;;;;;15.90;12.27;;;19.90;99.90;;;;;;5028408;28;20463;-70
2022/04/14 08:21:58;;;;;;;20.03;11.77;;;20.10;99.90;;;;;;5028627;28;20464;-73
2022/04/14 08:24:25;;;;;;;15.33;11.80;;;20.40;99.90;;;;;;5029567;28;20468;-71
2022/04/14 08:26:52;;;;;;;17.87;11.70;;;20.90;99.90;;;;;;5028840;28;21015;-72
2022/04/14 08:29:19;;;;;;;12.70;11.27;;;21.40;99.90;;;;;;5028643;28;20840;-72
2022/04/14 08:31:46;;;;;;;13.63;11.50;;;21.90;99.30;;;;;;5028665;28;20464;-70
2022/04/14 08:34:14;;;;;;;12.07;10.87;;;22.20;98.70;;;;;;5028992;28;20488;-74
2022/04/14 08:36:41;;;;;;;12.30;9.73;;;22.50;98.30;;;;;;5032340;28;20488;-74
2022/04/14 08:39:07;;;;;;;12.20;10.57;;;22.60;97.40;;;;;;5031941;28;20948;-72
2022/04/14 08:41:37;;;;;;;12.27;9.50;;;23.00;96.40;;;;;;5032907;28;20860;-73
2022/04/14 08:44:09;;;;;;;12.07;10.50;;;23.60;96.40;;;;;;5031781;28;20467;-71
2022/04/14 08:46:37;;;;;;;13.90;11.50;;;24.10;95.90;;;;;;5032719;28;20476;-72
2022/04/14 08:49:05;;;;;;;12.17;10.90;;;24.80;95.10;;;;;;5031818;28;20496;-69
2022/04/14 08:51:36;;;;;;;11.87;10.37;;;25.20;94.60;;;;;;5032814;28;20464;-72
2022/04/14 08:54:03;;;;;;;13.37;10.33;;;25.40;93.60;;;;;;5032825;28;20837;-71
2022/04/14 08:56:31;;;;;;;13.90;11.50;;;25.40;92.70;;;;;;5032244;28;20910;-71
2022/04/14 08:58:58;;;;;;;13.10;10.60;;;25.50;92.20;;;;;;5031911;28;20471;-71
2022/04/14 09:01:28;;;;;;;12.03;10.17;;;25.80;92.10;;;;;;5032621;28;20468;-71
2022/04/14 09:03:56;;;;;;;10.73;9.73;;;26.00;91.90;;;;;;5032558;28;20464;-71
2022/04/14 09:06:24;;;;;;;11.10;9.90;;;26.00;91.40;;;;;;5032419;28;20512;-69
2022/04/14 09:08:52;;;;;;;10.37;9.27;;;26.50;91.10;;;;;;5031733;28;20887;-72
2022/04/14 09:11:18;;;;;;;12.20;10.80;;;27.00;91.10;;;;;;5032824;28;20475;-72
2022/04/14 09:13:46;;;;;;;13.57;9.90;;;27.10;89.60;;;;;;5032294;28;20464;-71
2022/04/14 09:16:13;;;;;;;11.97;10.03;;;27.10;90.10;;;;;;5032481;28;20909;-70
2022/04/14 09:18:40;;;;;;;11.77;9.57;;;27.20;89.10;;;;;;5030473;28;20456;-73
2022/04/14 09:21:08;;;;;;;11.07;9.63;;;27.50;86.20;;;;;;5032037;28;20468;-73
2022/04/14 09:23:36;;;;;;;11.27;10.07;;;27.30;87.70;;;;;;5032637;28;20464;-73
2022/04/14 09:26:13;;;;;;;10.13;9.13;;;27.10;88.50;;;;;;5032520;28;20568;-69
2022/04/14 09:28:41;;;;;;;11.17;10.00;;;27.40;87.50;;;;;;5031798;28;20988;-69
2022/04/14 09:31:09;;;;;;;11.47;10.00;;;27.50;85.90;;;;;;5032171;28;20594;-71
2022/04/14 09:33:38;;;;;;;10.27;8.57;;;27.50;86.40;;;;;;5031920;28;20522;-70
2022/04/14 09:36:09;;;;;;;9.80;8.80;;;28.00;86.60;;;;;;5031685;28;20543;-69
2022/04/14 09:38:53;;;;;;;10.23;9.23;;;28.30;86.00;;;;;;5031757;28;20468;-69
2022/04/14 09:41:45;;;;;;;9.80;8.70;;;28.40;85.70;;;;;;5028110;28;20497;-68
2022/04/14 09:44:13;;;;;;;10.07;8.40;;;28.20;84.20;;;;;;5015940;28;20462;-69
2022/04/14 09:46:44;;;;;;;10.53;8.60;;;28.30;84.80;;;;;;5028050;28;20485;-69
2022/04/14 09:49:12;;;;;;;12.93;9.07;;;28.70;82.90;;;;;;5031127;28;20523;-69
2022/04/14 09:51:39;;;;;;;10.30;9.30;;;28.80;81.00;;;;;;5031719;28;20527;-69
2022/04/14 09:54:11;;;;;;;11.53;9.63;;;29.10;81.60;;;;;;5030958;28;20463;-69
2022/04/14 09:56:51;;;;;;;13.97;9.17;;;29.00;80.50;;;;;;5031499;28;21071;-69
2022/04/14 09:59:20;;;;;;;10.13;9.13;;;28.80;82.80;;;;;;5030869;28;20470;-69
2022/04/14 10:01:48;;;;;;;11.10;9.67;;;29.20;83.00;;;;;;5031514;28;20466;-69
2022/04/14 10:04:35;;;;;;;10.10;9.10;;;29.60;82.00;;;;;;5031097;28;20546;-69
2022/04/14 10:07:03;;;;;;;10.30;9.13;;;29.70;81.70;;;;;;5030757;28;21048;-69
2022/04/14 10:09:30;;;;;;;9.07;8.27;;;29.90;80.70;;;;;;5030331;28;20866;-68
2022/04/14 10:11:59;;;;;;;11.30;10.20;;;30.40;79.30;;;;;;5030908;28;21170;-68
2022/04/14 10:14:26;;;;;;;12.97;9.43;;;30.30;78.70;;;;;;5031361;28;20556;-68
2022/04/14 10:16:53;;;;;;;10.07;9.07;;;30.20;79.90;;;;;;5030112;28;20482;-68
2022/04/14 10:19:20;;;;;;;11.67;9.93;;;30.10;80.00;;;;;;5030930;28;20473;-68
2022/04/14 10:21:48;;;;;;;11.00;8.93;;;30.00;80.20;;;;;;5030757;28;20973;-68
2022/04/14 10:24:17;;;;;;;10.10;8.13;;;30.10;81.50;;;;;;5030640;28;20498;-68
2022/04/14 10:26:44;;;;;;;12.20;8.80;;;30.40;78.50;;;;;;5030672;28;20489;-67
2022/04/14 10:29:15;;;;;;;10.53;8.10;;;30.90;78.50;;;;;;5030209;28;20809;-70
2022/04/14 10:31:44;;;;;;;9.83;8.27;;;31.10;78.40;;;;;;5031152;28;20454;-72
2022/04/14 10:34:15;;;;;;;9.70;8.60;;;31.20;77.20;;;;;;5030390;28;20845;-66
2022/04/14 10:36:45;;;;;;;12.63;7.90;;;31.20;77.80;;;;;;5030553;28;20866;-68
2022/04/14 10:39:14;;;;;;;11.57;6.93;;;31.80;77.00;;;;;;5029917;28;20551;-68
2022/04/14 10:41:46;;;;;;;9.70;8.70;;;32.20;75.30;;;;;;5030958;28;20478;-69
2022/04/14 10:44:14;;;;;;;9.50;7.90;;;32.40;74.00;;;;;;5030769;28;20460;-69
2022/04/14 10:46:46;;;;;;;9.60;8.70;;;32.30;75.10;;;;;;5024736;28;20478;-68
2022/04/14 10:49:15;;;;;;;10.90;8.80;;;31.80;75.10;;;;;;5029724;28;20587;-69
2022/04/14 10:51:43;;;;;;;10.67;8.90;;;31.40;75.00;;;;;;5029903;28;20512;-69
2022/04/14 10:54:11;;;;;;;9.47;8.57;;;30.90;75.70;;;;;;5029244;28;20476;-69
2022/04/14 10:57:01;;;;;;;10.23;9.13;;;31.40;76.70;;;;;;5029575;28;20497;-69
2022/04/14 10:59:47;;;;;;;10.10;9.10;;;31.30;75.80;;;;;;5029205;28;20553;-69
2022/04/14 11:02:14;;;;;;;11.43;8.03;;;31.70;74.80;;;;;;5029371;28;20469;-69
2022/04/14 11:04:53;;;;;;;12.33;9.17;;;31.30;76.10;;;;;;5029870;28;20461;-68
2022/04/14 11:07:21;;;;;;;9.43;7.23;;;31.40;75.70;;;;;;5029721;28;20489;-70
2022/04/14 11:09:51;;;;;;;11.10;10.00;;;31.70;74.40;;;;;;5028471;28;20493;-70
2022/04/14 11:12:20;;;;;;;8.80;7.90;;;31.80;74.00;;;;;;5029473;28;20525;-70
2022/04/14 11:14:55;;;;;;;16.73;10.33;;;31.70;74.40;;;;;;5029645;28;20468;-70
2022/04/14 11:17:57;;;;;;;15.93;8.40;;;31.50;73.40;;;;;;5029869;28;20903;-68
2022/04/14 11:20:44;;;;;;;10.00;9.00;;;31.20;74.90;;;;;;5029851;28;20565;-71
2022/04/14 11:23:12;;;;;;;10.10;9.10;;;31.40;74.20;;;;;;5028860;28;20857;-72
2022/04/14 11:25:44;;;;;;;10.53;9.40;;;31.60;74.90;;;;;;5029233;28;20539;-71
2022/04/14 11:28:20;;;;;;;12.27;9.47;;;31.60;74.20;;;;;;5028489;28;20467;-69
2022/04/14 11:30:50;;;;;;;11.87;9.37;;;31.30;74.60;;;;;;5029120;28;20519;-70
2022/04/14 11:33:35;;;;;;;10.47;9.27;;;31.40;74.70;;;;;;5029532;28;20470;-71
2022/04/14 11:36:11;;;;;;;13.20;10.30;;;32.00;74.00;;;;;;5028762;28;20500;-70
2022/04/14 11:38:58;;;;;;;11.30;9.90;;;32.20;73.70;;;;;;5027510;28;21032;-71
2022/04/14 11:41:41;;;;;;;10.97;9.97;;;31.90;74.20;;;;;;5028809;28;20469;-70
2022/04/14 11:44:11;;;;;;;10.47;8.03;;;32.10;73.20;;;;;;5029386;28;20463;-69
2022/04/14 11:46:41;;;;;;;13.23;8.90;;;32.40;73.70;;;;;;5029185;28;20566;-69
2022/04/14 11:49:10;;;;;;;11.13;9.10;;;32.20;73.00;;;;;;5028428;28;20469;-68
2022/04/14 11:51:44;;;;;;;12.20;10.07;;;32.10;73.20;;;;;;5028642;28;20468;-68
2022/04/14 11:54:11;;;;;;;10.17;9.30;;;32.30;73.40;;;;;;5028759;28;20489;-68
2022/04/14 11:56:38;;;;;;;13.37;9.30;;;32.50;73.10;;;;;;5028836;28;20495;-67
2022/04/14 11:59:08;;;;;;;11.87;10.67;;;32.70;72.80;;;;;;5028333;28;20514;-68
2022/04/14 12:01:36;;;;;;;9.47;8.40;;;32.70;71.80;;;;;;5028966;28;20971;-68
2022/04/14 12:04:07;;;;;;;10.80;9.47;;;32.70;73.20;;;;;;5029180;28;20475;-67
2022/04/14 12:06:34;;;;;;;9.60;8.53;;;32.70;73.10;;;;;;5028725;28;21070;-68
2022/04/14 12:09:00;;;;;;;12.10;9.27;;;32.40;74.30;;;;;;5029069;28;20466;-68
2022/04/14 12:11:30;;;;;;;8.80;7.93;;;32.00;73.10;;;;;;5033279;28;20467;-68
2022/04/14 12:13:58;;;;;;;10.00;7.70;;;31.80;72.40;;;;;;5033327;28;20472;-68
2022/04/14 12:16:27;;;;;;;11.50;9.40;;;31.80;73.50;;;;;;5033045;28;20906;-68
2022/04/14 12:18:55;;;;;;;9.50;8.60;;;31.70;72.80;;;;;;5032403;28;20560;-69
2022/04/14 12:21:25;;;;;;;10.17;8.67;;;32.00;72.40;;;;;;5033593;28;20470;-68
2022/04/14 12:23:54;;;;;;;10.10;8.70;;;32.40;72.50;;;;;;5032583;28;20496;-68
2022/04/14 12:26:21;;;;;;;11.57;10.37;;;32.80;72.20;;;;;;5032963;28;20477;-69
2022/04/14 12:28:49;;;;;;;12.53;9.00;;;32.50;71.50;;;;;;5032382;28;20506;-68
2022/04/14 12:31:17;;;;;;;10.50;9.50;;;32.60;72.30;;;;;;5033010;28;20878;-68
2022/04/14 12:33:56;;;;;;;11.00;9.40;;;32.40;70.80;;;;;;5033168;28;20602;-67
2022/04/14 12:36:34;;;;;;;10.77;9.67;;;32.10;73.50;;;;;;5032388;28;20574;-68
2022/04/14 12:39:04;;;;;;;12.20;10.93;;;31.50;73.20;;;;;;5031955;28;20471;-68
2022/04/14 12:41:35;;;;;;;12.57;10.60;;;31.30;73.30;;;;;;5064898;22;20495;-92
2022/04/14 12:44:02;;;;;;;11.80;10.70;;;30.90;75.00;;;;;;5064776;22;20492;-71